createdAt,value
2023-05-11T00:02:02.574Z,98095.91
2023-05-11T00:05:05.972Z,98095.09
2023-05-11T00:08:09.457Z,98092.31
2023-05-11T00:11:12.429Z,98094.28
2023-05-11T00:14:15.187Z,98093.03
2023-05-11T00:17:20.002Z,98085.16
2023-05-11T00:20:24.104Z,98089.03
2023-05-11T00:23:26.911Z,98090.13
2023-05-11T00:26:30.902Z,98087.34
2023-05-11T00:29:33.818Z,98081.44
2023-05-11T00:32:37.448Z,98083.78
2023-05-11T00:35:40.332Z,98090.41
2023-05-11T00:38:43.748Z,98085.69
2023-05-11T00:41:46.413Z,98084.59
2023-05-11T00:44:49.215Z,98081.81
2023-05-11T00:47:51.957Z,98081.28
2023-05-11T00:50:55.045Z,98078.94
2023-05-11T00:53:58.743Z,98080.88
2023-05-11T00:57:04.388Z,98080.59
2023-05-11T01:00:07.771Z,98093.16
2023-05-11T01:03:11.254Z,98089.69
2023-05-11T01:06:45.278Z,98093.25
2023-05-11T01:10:10.696Z,98081.25
2023-05-11T01:13:40.030Z,98085.69
2023-05-11T01:16:50.154Z,98080.47
2023-05-11T01:20:06.688Z,98080.63
2023-05-11T01:23:29.392Z,98086.53
2023-05-11T01:26:32.633Z,98097.56
2023-05-11T01:29:44.274Z,98090.69
2023-05-11T01:32:47.659Z,98094.66
2023-05-11T01:35:53.813Z,98095.09
2023-05-11T01:38:59.967Z,98092.59
2023-05-11T01:42:08.859Z,98089.03
2023-05-11T01:45:12.356Z,98091.78
2023-05-11T01:48:18.353Z,98094.94
2023-05-11T01:51:21.294Z,98097.28
2023-05-11T01:54:24.934Z,98088.34
2023-05-11T01:57:29.590Z,98092.03
2023-05-11T02:00:33.796Z,98086.53
2023-05-11T02:03:37.294Z,98087.34
2023-05-11T02:06:41.539Z,98080.34
2023-05-11T02:09:45.134Z,98081.72
2023-05-11T02:12:48.406Z,98080.75
2023-05-11T02:15:53.809Z,98082.78
2023-05-11T02:18:58.506Z,98080.97
2023-05-11T02:22:01.537Z,98077.38
2023-05-11T02:25:05.415Z,98071.28
2023-05-11T02:28:08.671Z,98078.59
2023-05-11T02:31:17.546Z,98075.41
2023-05-11T02:34:25.906Z,98071.00
2023-05-11T02:37:31.145Z,98080.38
2023-05-11T02:40:43.575Z,98072.34
2023-05-11T02:43:49.866Z,98076.38
2023-05-11T02:46:56.331Z,98070.66
2023-05-11T02:50:02.002Z,98073.13
2023-05-11T02:53:08.949Z,98072.28
2023-05-11T02:56:12.043Z,98062.72
2023-05-11T02:59:15.066Z,98069.78
2023-05-11T03:02:18.097Z,98075.69
2023-05-11T03:05:21.129Z,98076.91
2023-05-11T03:08:24.301Z,98075.34
2023-05-11T03:11:27.359Z,98073.25
2023-05-11T03:14:33.429Z,98063.00
2023-05-11T03:17:36.519Z,98072.38
2023-05-11T03:20:40.946Z,98072.69
2023-05-11T03:23:44.135Z,98072.91
2023-05-11T03:26:47.024Z,98070.28
2023-05-11T03:29:51.131Z,98067.53
2023-05-11T03:32:57.033Z,98062.94
2023-05-11T03:36:00.895Z,98062.41
2023-05-11T03:39:05.545Z,98064.44
2023-05-11T03:42:10.758Z,98065.13
2023-05-11T03:45:15.163Z,98061.97
2023-05-11T03:48:19.074Z,98070.22
2023-05-11T03:51:21.888Z,98065.94
2023-05-11T03:54:24.805Z,98057.84
2023-05-11T03:57:27.807Z,98065.53
2023-05-11T04:00:31.080Z,98063.94
2023-05-11T04:03:35.731Z,98066.88
2023-05-11T04:06:38.904Z,98070.84
2023-05-11T04:09:52.172Z,98070.72
2023-05-11T04:12:55.450Z,98074.53
2023-05-11T04:15:58.355Z,98071.97
2023-05-11T04:19:02.337Z,98071.38
2023-05-11T04:22:05.306Z,98070.78
2023-05-11T04:25:08.769Z,98074.22
2023-05-11T04:28:11.521Z,98084.78
2023-05-11T04:31:14.334Z,98082.59
2023-05-11T04:34:17.300Z,98077.91
2023-05-11T04:37:20.696Z,98077.50
2023-05-11T04:40:23.799Z,98079.06
2023-05-11T04:43:26.717Z,98079.72
2023-05-11T04:46:29.961Z,98081.16
2023-05-11T04:49:33.775Z,98086.09
2023-05-11T04:52:36.896Z,98085.66
2023-05-11T04:55:40.229Z,98082.47
2023-05-11T04:58:44.322Z,98086.28
2023-05-11T05:01:47.223Z,98080.09
2023-05-11T05:04:50.327Z,98090.97
2023-05-11T05:07:53.136Z,98087.41
2023-05-11T05:10:56.397Z,98089.75
2023-05-11T05:14:00.335Z,98101.44
2023-05-11T05:17:03.448Z,98093.41
2023-05-11T05:20:07.090Z,98093.25
2023-05-11T05:23:09.886Z,98106.59
2023-05-11T05:26:14.780Z,98102.78
2023-05-11T05:29:17.766Z,98100.44
2023-05-11T05:32:20.720Z,98103.00
2023-05-11T05:35:23.886Z,98097.50
2023-05-11T05:38:26.721Z,98107.34
2023-05-11T05:41:30.040Z,98102.59
2023-05-11T05:44:33.361Z,98107.78
2023-05-11T05:47:36.418Z,98109.06
2023-05-11T05:50:39.291Z,98106.22
2023-05-11T05:53:42.757Z,98112.28
2023-05-11T05:56:45.867Z,98122.53
2023-05-11T05:59:48.649Z,98118.41
2023-05-11T06:02:54.367Z,98123.78
2023-05-11T06:06:02.848Z,98115.34
2023-05-11T06:09:05.770Z,98120.69
2023-05-11T06:12:10.325Z,98126.22
2023-05-11T06:15:17.789Z,98126.47
2023-05-11T06:18:26.079Z,98134.81
2023-05-11T06:21:29.139Z,98132.00
2023-05-11T06:24:32.691Z,98131.34
2023-05-11T06:27:35.870Z,98130.25
2023-05-11T06:30:39.086Z,98128.34
2023-05-11T06:33:44.315Z,98126.41
2023-05-11T06:36:59.679Z,98135.50
2023-05-11T06:40:03.258Z,98133.59
2023-05-11T06:43:06.847Z,98128.28
2023-05-11T06:46:22.443Z,98136.13
2023-05-11T06:49:25.796Z,98128.25
2023-05-11T06:52:28.463Z,98142.59
2023-05-11T06:55:31.349Z,98134.56
2023-05-11T06:58:35.719Z,98134.41
2023-05-11T07:01:38.958Z,98132.41
2023-05-11T07:04:41.927Z,98121.81
2023-05-11T07:07:44.933Z,98134.28
2023-05-11T07:10:47.966Z,98125.91
2023-05-11T07:13:50.685Z,98126.81
2023-05-11T07:16:54.844Z,98120.78
2023-05-11T07:19:57.577Z,98123.91
2023-05-11T07:23:00.341Z,98127.91
2023-05-11T07:26:09.143Z,98115.88
2023-05-11T07:29:11.866Z,98122.41
2023-05-11T07:32:14.865Z,98117.00
2023-05-11T07:35:17.752Z,98114.94
2023-05-11T07:38:20.623Z,98109.00
2023-05-11T07:41:26.985Z,98116.00
2023-05-11T07:44:29.952Z,98113.56
2023-05-11T07:47:34.463Z,98115.41
2023-05-11T07:50:39.710Z,98112.53
2023-05-11T07:53:42.760Z,98115.44
2023-05-11T07:56:46.116Z,98118.13
2023-05-11T07:59:48.970Z,98119.13
2023-05-11T08:02:52.017Z,98113.97
2023-05-11T08:05:55.005Z,98112.97
2023-05-11T08:08:57.911Z,98109.69
2023-05-11T08:12:01.995Z,98115.06
2023-05-11T08:15:06.117Z,98109.06
2023-05-11T08:18:08.941Z,98111.63
2023-05-11T08:21:13.368Z,98106.44
2023-05-11T08:24:16.220Z,98108.91
2023-05-11T08:27:19.031Z,98100.47
2023-05-11T08:30:22.209Z,98098.81
2023-05-11T08:33:37.469Z,98094.78
2023-05-11T08:36:41.400Z,98090.59
2023-05-11T08:39:47.381Z,98089.97
2023-05-11T08:42:55.992Z,98088.91
2023-05-11T08:46:05.379Z,98085.81
2023-05-11T08:49:08.898Z,98087.38
2023-05-11T08:52:13.318Z,98079.28
2023-05-11T08:55:16.739Z,98085.00
2023-05-11T08:58:22.689Z,98089.53
2023-05-11T09:01:29.910Z,98082.34
2023-05-11T09:04:33.334Z,98074.03
2023-05-11T09:07:37.860Z,98076.72
2023-05-11T09:27:25.677Z,98072.53
2023-05-11T09:30:28.964Z,98067.53
2023-05-11T09:33:31.771Z,98066.38
2023-05-11T09:36:34.817Z,98070.06
2023-05-11T09:39:44.698Z,98066.06
2023-05-11T09:43:00.581Z,98062.84
2023-05-11T09:46:07.940Z,98066.94
2023-05-11T09:49:13.093Z,98069.59
2023-05-11T09:52:17.824Z,98065.81
2023-05-11T09:55:21.108Z,98059.69
2023-05-11T09:58:24.728Z,98059.78
2023-05-11T10:01:35.325Z,98053.38
2023-05-11T10:04:38.133Z,98051.97
2023-05-11T10:07:41.242Z,98048.06
2023-05-11T10:10:44.149Z,98048.03
2023-05-11T10:13:47.028Z,98046.50
2023-05-11T10:16:50.643Z,98041.22
2023-05-11T10:19:55.537Z,98045.81
2023-05-11T10:22:58.553Z,98027.97
2023-05-11T10:26:01.789Z,98036.84
2023-05-11T10:29:04.787Z,98027.22
2023-05-11T10:32:09.069Z,98029.78
2023-05-11T10:35:12.263Z,98029.38
2023-05-11T10:38:17.777Z,98029.41
2023-05-11T10:41:31.440Z,98028.78
2023-05-11T10:44:47.200Z,98028.16
2023-05-11T10:48:13.065Z,98017.72
2023-05-11T10:51:52.842Z,98006.81
2023-05-11T10:55:00.293Z,97994.19
2023-05-11T10:58:07.980Z,98005.19
2023-05-11T11:01:22.984Z,97992.91
2023-05-11T11:04:26.919Z,97979.41
2023-05-11T11:07:30.997Z,97973.97
2023-05-11T11:10:34.608Z,97964.00
2023-05-11T11:13:57.776Z,97971.34
2023-05-11T11:17:15.959Z,97972.66
2023-05-11T11:20:57.483Z,97968.47
2023-05-11T11:24:02.318Z,97963.78
2023-05-11T11:27:06.952Z,97955.59
2023-05-11T11:30:30.051Z,97969.25
2023-05-11T11:33:34.468Z,97969.50
2023-05-11T11:36:55.478Z,97971.53
2023-05-11T11:40:13.153Z,97966.81
2023-05-11T11:43:23.148Z,97959.69
2023-05-11T11:46:29.180Z,97955.41
2023-05-11T11:49:31.912Z,97967.97
2023-05-11T11:52:35.579Z,97968.31
2023-05-11T11:55:49.639Z,97954.34
2023-05-11T11:58:52.310Z,97956.13
2023-05-11T12:01:56.606Z,97958.78
2023-05-11T12:05:13.025Z,97967.03
2023-05-11T12:08:17.054Z,97953.63
2023-05-11T12:11:20.045Z,97946.41
2023-05-11T12:14:23.112Z,97947.84
2023-05-11T12:17:29.792Z,97948.19
2023-05-11T12:20:33.240Z,97962.25
2023-05-11T12:23:36.212Z,97952.72
2023-05-11T12:26:39.138Z,97952.13
2023-05-11T12:29:41.804Z,97957.84
2023-05-11T12:32:44.567Z,97953.22
2023-05-11T12:35:52.660Z,97947.28
2023-05-11T12:38:55.551Z,97948.25
2023-05-11T12:41:58.297Z,97938.06
2023-05-11T12:45:01.197Z,97930.25
2023-05-11T12:48:04.981Z,97928.75
2023-05-11T12:51:07.618Z,97939.44
2023-05-11T12:54:10.471Z,97931.69
2023-05-11T12:57:27.593Z,97927.69
2023-05-11T13:00:30.247Z,97918.72
2023-05-11T13:03:35.860Z,97929.44
2023-05-11T13:06:38.868Z,97905.38
2023-05-11T13:09:42.361Z,97915.44
2023-05-11T13:12:49.971Z,97913.84
2023-05-11T13:15:53.063Z,97911.47
2023-05-11T13:19:03.827Z,97907.53
2023-05-11T13:22:07.453Z,97891.78
2023-05-11T13:25:10.446Z,97908.38
2023-05-11T13:28:18.267Z,97898.31
2023-05-11T13:31:21.305Z,97898.78
2023-05-11T13:34:26.025Z,97893.84
2023-05-11T13:37:28.823Z,97899.53
2023-05-11T13:40:31.734Z,97899.13
2023-05-11T13:43:34.450Z,97884.13
2023-05-11T13:46:37.333Z,97882.28
2023-05-11T13:49:40.152Z,97885.56
2023-05-11T13:52:42.921Z,97889.16
2023-05-11T13:55:45.617Z,97875.81
2023-05-11T13:58:48.265Z,97873.63
2023-05-11T14:01:51.329Z,97878.41
2023-05-11T14:04:54.074Z,97879.94
2023-05-11T14:07:56.805Z,97883.31
2023-05-11T14:10:59.405Z,97873.72
2023-05-11T14:14:02.062Z,97877.63
2023-05-11T14:17:04.896Z,97870.47
2023-05-11T14:20:08.418Z,97878.91
2023-05-11T14:23:11.229Z,97868.19
2023-05-11T14:26:14.056Z,97865.41
2023-05-11T14:29:16.856Z,97863.53
2023-05-11T14:32:20.696Z,97851.53
2023-05-11T14:35:23.598Z,97854.56
2023-05-11T14:38:26.392Z,97861.34
2023-05-11T14:41:29.135Z,97866.13
2023-05-11T14:44:32.178Z,97864.88
2023-05-11T14:47:35.067Z,97867.06
2023-05-11T14:50:37.908Z,97875.44
2023-05-11T14:53:40.876Z,97871.00
2023-05-11T14:56:43.692Z,97876.00
2023-05-11T14:59:58.496Z,97865.75
2023-05-11T15:03:02.836Z,97869.69
2023-05-11T15:06:06.019Z,97865.97
2023-05-11T15:09:09.028Z,97864.09
2023-05-11T15:12:11.733Z,97864.81
2023-05-11T15:15:14.493Z,97857.59
2023-05-11T15:18:17.299Z,97854.13
2023-05-11T15:21:20.069Z,97855.28
2023-05-11T15:24:22.863Z,97864.72
2023-05-11T15:27:25.596Z,97850.84
2023-05-11T15:30:30.834Z,97856.47
2023-05-11T15:33:34.695Z,97861.53
2023-05-11T15:36:37.594Z,97861.78
2023-05-11T15:39:40.844Z,97852.00
2023-05-11T15:42:43.615Z,97862.97
2023-05-11T15:45:46.647Z,97857.81
2023-05-11T15:48:49.318Z,97863.03
2023-05-11T15:51:52.023Z,97865.50
2023-05-11T15:54:54.948Z,97865.91
2023-05-11T15:57:57.623Z,97867.47
2023-05-11T16:01:00.461Z,97872.19
2023-05-11T16:04:04.210Z,97873.56
2023-05-11T16:07:07.235Z,97875.22
2023-05-11T16:10:10.416Z,97876.91
2023-05-11T16:13:13.102Z,97875.25
2023-05-11T16:16:15.867Z,97876.59
2023-05-11T16:19:18.695Z,97870.97
2023-05-11T16:22:21.685Z,97866.75
2023-05-11T16:25:24.524Z,97867.09
2023-05-11T16:28:27.188Z,97872.00
2023-05-11T16:31:30.334Z,97863.53
2023-05-11T16:34:35.412Z,97871.22
2023-05-11T16:37:38.522Z,97864.69
2023-05-11T16:40:41.422Z,97872.03
2023-05-11T16:43:46.413Z,97878.31
2023-05-11T16:46:49.537Z,97875.59
2023-05-11T16:49:52.667Z,97872.97
2023-05-11T16:52:55.981Z,97876.25
2023-05-11T16:55:58.864Z,97881.06
2023-05-11T16:59:01.680Z,97880.78
2023-05-11T17:02:06.462Z,97873.09
2023-05-11T17:05:11.066Z,97881.50
2023-05-11T17:08:13.837Z,97873.75
2023-05-11T17:11:16.525Z,97883.41
2023-05-11T17:14:21.187Z,97886.56
2023-05-11T17:17:24.886Z,97889.66
2023-05-11T17:20:27.755Z,97899.09
2023-05-11T17:23:30.519Z,97898.25
2023-05-11T17:26:46.393Z,97897.63
2023-05-11T17:29:49.741Z,97897.41
2023-05-11T17:32:52.951Z,97896.19
2023-05-11T17:35:56.031Z,97900.84
2023-05-11T17:38:58.776Z,97901.47
2023-05-11T17:42:01.560Z,97896.28
2023-05-11T17:45:04.647Z,97903.41
2023-05-11T17:48:07.399Z,97914.97
2023-05-11T17:51:10.964Z,97913.91
2023-05-11T17:54:14.109Z,97922.59
2023-05-11T17:57:17.309Z,97917.41
2023-05-11T18:00:22.888Z,97922.63
2023-05-11T18:03:25.929Z,97927.41
2023-05-11T18:06:28.957Z,97928.53
2023-05-11T18:09:32.041Z,97935.94
2023-05-11T18:12:34.879Z,97932.53
2023-05-11T18:15:38.465Z,97935.72
2023-05-11T18:18:42.900Z,97938.25
2023-05-11T18:21:46.033Z,97944.78
2023-05-11T18:24:49.397Z,97940.63
2023-05-11T18:27:52.627Z,97946.94
2023-05-11T18:30:56.093Z,97953.44
2023-05-11T18:33:58.943Z,97946.84
2023-05-11T18:37:03.131Z,97954.69
2023-05-11T18:40:07.720Z,97953.19
2023-05-11T18:43:10.587Z,97962.28
2023-05-11T18:46:13.498Z,97968.19
2023-05-11T18:49:16.398Z,97964.81
2023-05-11T18:52:19.188Z,97969.56
2023-05-11T18:55:22.382Z,97979.25
2023-05-11T18:58:25.449Z,97974.75
2023-05-11T19:01:36.543Z,97980.06
2023-05-11T19:04:49.142Z,97983.41
2023-05-11T19:07:52.598Z,97988.25
2023-05-11T19:10:55.412Z,97986.59
2023-05-11T19:14:01.957Z,97989.84
2023-05-11T19:17:05.623Z,97989.91
2023-05-11T19:20:09.972Z,97990.28
2023-05-11T19:23:13.710Z,97997.25
2023-05-11T19:26:16.582Z,97997.31
2023-05-11T19:29:22.074Z,97999.63
2023-05-11T19:32:25.099Z,97999.28
2023-05-11T19:35:28.626Z,97991.59
2023-05-11T19:38:31.588Z,97990.97
2023-05-11T19:41:35.022Z,97998.41
2023-05-11T19:44:43.635Z,97997.78
2023-05-11T19:47:46.538Z,98004.06
2023-05-11T19:50:49.357Z,98001.97
2023-05-11T19:53:52.046Z,98001.47
2023-05-11T19:56:56.575Z,98000.66
2023-05-11T19:59:59.353Z,98001.47
2023-05-11T20:03:02.338Z,98004.94
2023-05-11T20:06:05.140Z,97993.09
2023-05-11T20:09:07.858Z,97994.41
2023-05-11T20:12:11.267Z,97995.88
2023-05-11T20:15:14.095Z,98004.47
2023-05-11T20:18:18.865Z,98006.44
2023-05-11T20:21:21.897Z,98007.78
2023-05-11T20:24:24.765Z,98002.31
2023-05-11T20:27:27.621Z,97989.78
2023-05-11T20:30:30.480Z,97993.75
2023-05-11T20:36:39.510Z,97990.13
2023-05-11T20:39:43.941Z,97989.81
2023-05-11T20:42:46.733Z,97986.03
2023-05-11T20:45:49.522Z,97988.00
2023-05-11T20:48:52.280Z,97991.28
2023-05-11T20:51:57.155Z,97988.16
2023-05-11T20:54:59.849Z,97991.63
2023-05-11T20:58:04.587Z,97994.91
2023-05-11T21:01:07.455Z,97988.31
2023-05-11T21:04:10.140Z,97983.69
2023-05-11T21:07:12.857Z,97983.81
2023-05-11T21:10:15.598Z,97983.66
2023-05-11T21:13:18.309Z,97980.69
2023-05-11T21:16:21.056Z,97976.53
2023-05-11T21:19:23.677Z,97978.03
2023-05-11T21:22:26.306Z,97976.22
2023-05-11T21:25:28.925Z,97974.84
2023-05-11T21:28:32.872Z,97988.19
2023-05-11T21:31:35.572Z,97976.34
2023-05-11T21:34:38.646Z,97983.84
2023-05-11T21:37:41.962Z,97983.97
2023-05-11T21:40:44.888Z,98003.88
2023-05-11T21:43:47.447Z,98007.28
2023-05-11T21:46:50.764Z,97998.34
2023-05-11T21:49:53.479Z,98006.22
2023-05-11T21:52:56.221Z,98003.78
2023-05-11T21:55:58.857Z,98011.00
2023-05-11T21:59:01.569Z,98010.34
2023-05-11T22:02:04.419Z,98008.72
2023-05-11T22:05:07.340Z,98012.69
2023-05-11T22:08:14.908Z,98003.38
2023-05-11T22:11:19.788Z,98011.56
2023-05-11T22:14:24.326Z,98013.50
2023-05-11T22:17:26.949Z,98010.53
2023-05-11T22:20:29.630Z,98012.22
2023-05-11T22:23:32.332Z,98015.09
2023-05-11T22:26:35.416Z,98018.97
2023-05-11T22:29:38.039Z,98022.59
2023-05-11T22:32:40.653Z,98021.59
2023-05-11T22:35:43.299Z,98026.53
2023-05-11T22:38:45.907Z,98029.16
2023-05-11T22:41:48.511Z,98026.63
2023-05-11T22:44:51.196Z,98025.44
2023-05-11T22:47:54.498Z,98040.41
2023-05-11T22:50:57.201Z,98034.03
2023-05-11T22:53:59.848Z,98034.38
2023-05-11T22:57:03.753Z,98047.03
2023-05-11T23:00:10.890Z,98049.75
2023-05-11T23:03:13.763Z,98050.56
2023-05-11T23:06:16.651Z,98049.63
2023-05-11T23:09:19.345Z,98057.78
2023-05-11T23:12:21.934Z,98052.06
2023-05-11T23:15:24.742Z,98052.28
2023-05-11T23:18:27.491Z,98056.50
2023-05-11T23:21:30.294Z,98047.66
2023-05-11T23:24:33.031Z,98052.25
2023-05-11T23:27:35.613Z,98055.09
2023-05-11T23:30:38.509Z,98053.59
2023-05-11T23:33:41.077Z,98058.84
2023-05-11T23:36:44.067Z,98052.06
2023-05-11T23:39:46.696Z,98047.41
2023-05-11T23:42:49.877Z,98052.31
2023-05-11T23:45:52.743Z,98049.81
2023-05-11T23:48:56.093Z,98054.97
2023-05-11T23:51:58.944Z,98058.16
2023-05-11T23:55:01.560Z,98051.84
2023-05-11T23:58:04.186Z,98048.75
